Time;durP1;ratioP1;P1;durP2;ratioP2;P2;SDS_P1;SDS_P2;PMS_P1;PMS_P2;Temp;Humidity;BMP_temperature;BMP_pressure;BME280_temperature;BME280_humidity;BME280_pressure;Samples;Min_cycle;Max_cycle;Signal;HPM_P1;HPM_P2
2023/08/29 00:00:22;;;;;;;2.65;2.00;;;16.10;99.90;;;;;;5058868;28;20028;-47
2023/08/29 00:02:48;;;;;;;3.17;1.77;;;16.00;99.90;;;;;;5061007;28;20021;-46
2023/08/29 00:05:13;;;;;;;2.55;2.10;;;16.00;99.90;;;;;;5059636;28;20025;-47
2023/08/29 00:07:39;;;;;;;2.42;1.80;;;15.90;99.90;;;;;;5056816;28;20017;-45
2023/08/29 00:10:05;;;;;;;3.13;1.58;;;15.90;99.90;;;;;;5067997;28;20071;-45
2023/08/29 00:12:34;;;;;;;4.88;2.08;;;15.90;99.90;;;;;;5068295;28;20053;-46
2023/08/29 00:15:00;;;;;;;3.03;2.17;;;15.90;99.90;;;;;;5068188;28;20039;-45
2023/08/29 00:17:27;;;;;;;4.82;2.25;;;15.80;99.90;;;;;;5068286;28;20103;-47
2023/08/29 00:19:55;;;;;;;4.88;2.10;;;15.80;99.90;;;;;;5067795;28;20500;-45
2023/08/29 00:22:20;;;;;;;3.08;1.88;;;15.80;99.90;;;;;;5066889;28;20039;-48
2023/08/29 00:24:47;;;;;;;2.53;1.80;;;15.80;99.90;;;;;;5066807;28;20108;-47
2023/08/29 00:27:13;;;;;;;4.35;2.17;;;15.70;99.90;;;;;;5066645;28;20078;-49
2023/08/29 00:29:39;;;;;;;6.22;1.90;;;15.70;99.90;;;;;;5066477;28;20032;-45
2023/08/29 00:32:05;;;;;;;3.95;1.80;;;15.70;99.90;;;;;;5068264;28;20101;-48
2023/08/29 00:34:30;;;;;;;3.17;2.30;;;15.70;99.90;;;;;;5068125;28;20101;-48
2023/08/29 00:36:56;;;;;;;4.88;1.98;;;15.70;99.90;;;;;;5066617;28;20487;-46
2023/08/29 00:39:22;;;;;;;3.78;1.70;;;15.70;99.90;;;;;;5066076;28;20548;-48
2023/08/29 00:41:49;;;;;;;3.38;2.10;;;15.70;99.90;;;;;;5068151;28;20123;-46
2023/08/29 00:44:16;;;;;;;2.13;1.70;;;15.70;99.90;;;;;;5067925;28;20498;-46
2023/08/29 00:46:42;;;;;;;2.45;1.75;;;15.70;99.90;;;;;;5067905;28;20016;-47
2023/08/29 00:49:09;;;;;;;4.13;1.90;;;15.60;99.90;;;;;;5067330;28;20109;-46
2023/08/29 00:51:34;;;;;;;3.38;1.75;;;15.60;99.90;;;;;;5068009;28;20429;-45
2023/08/29 00:54:02;;;;;;;2.03;1.80;;;15.60;99.90;;;;;;5067949;28;20087;-47
2023/08/29 00:56:27;;;;;;;7.20;2.20;;;15.60;99.90;;;;;;5066624;28;20580;-46
2023/08/29 00:58:54;;;;;;;3.53;1.98;;;15.60;99.90;;;;;;5067007;28;20119;-46
2023/08/29 01:01:20;;;;;;;3.70;2.35;;;15.60;99.90;;;;;;5067319;28;20122;-46
2023/08/29 01:03:45;;;;;;;4.53;2.53;;;15.60;99.90;;;;;;5067388;28;20087;-46
2023/08/29 01:06:11;;;;;;;4.10;2.15;;;15.60;99.90;;;;;;5067656;28;20028;-45
2023/08/29 01:08:37;;;;;;;5.15;2.50;;;15.60;99.90;;;;;;5066884;28;20044;-46
2023/08/29 01:11:12;;;;;;;2.42;1.70;;;15.60;99.90;;;;;;5067408;28;20439;-45
2023/08/29 01:13:47;;;;;;;3.67;2.15;;;15.60;99.90;;;;;;5067253;28;20032;-46
2023/08/29 01:16:15;;;;;;;6.07;2.47;;;15.60;99.90;;;;;;5067634;28;20070;-46
2023/08/29 01:18:43;;;;;;;3.28;2.60;;;15.60;99.90;;;;;;5066590;28;20043;-46
2023/08/29 01:21:28;;;;;;;6.50;2.85;;;15.50;99.90;;;;;;5067266;28;20012;-46
2023/08/29 01:24:10;;;;;;;3.00;2.00;;;15.50;99.90;;;;;;5066837;28;20020;-46
2023/08/29 01:26:36;;;;;;;2.30;2.03;;;15.60;99.90;;;;;;5066996;28;20404;-45
2023/08/29 01:29:03;;;;;;;2.40;2.17;;;15.50;99.90;;;;;;5066511;28;20154;-46
2023/08/29 01:31:30;;;;;;;4.00;2.00;;;15.50;99.90;;;;;;5066863;28;20024;-45
2023/08/29 01:33:57;;;;;;;3.80;2.40;;;15.50;99.90;;;;;;5066716;28;20035;-45
2023/08/29 01:36:27;;;;;;;6.63;2.17;;;15.50;99.90;;;;;;5066909;28;20035;-46
2023/08/29 01:38:53;;;;;;;4.53;2.10;;;15.50;99.90;;;;;;5066317;28;20501;-46
2023/08/29 01:41:18;;;;;;;2.25;2.03;;;15.40;99.90;;;;;;5067002;28;20035;-46
2023/08/29 01:43:44;;;;;;;3.03;1.90;;;15.40;99.90;;;;;;5067113;28;20028;-48
2023/08/29 01:46:10;;;;;;;3.40;2.13;;;15.40;99.90;;;;;;5066691;28;20402;-46
2023/08/29 01:48:38;;;;;;;4.10;2.22;;;15.40;99.90;;;;;;5066660;28;20029;-46
2023/08/29 01:51:03;;;;;;;4.75;2.53;;;15.40;99.90;;;;;;5066676;28;20104;-48
2023/08/29 01:53:29;;;;;;;3.42;2.22;;;15.40;99.90;;;;;;5066653;28;20477;-46
2023/08/29 01:55:56;;;;;;;4.38;2.22;;;15.40;99.90;;;;;;5066813;28;20021;-45
2023/08/29 01:58:23;;;;;;;2.80;2.40;;;15.40;99.90;;;;;;5066372;28;20044;-46
2023/08/29 02:00:49;;;;;;;4.25;2.60;;;15.40;99.90;;;;;;5065141;28;20400;-45
2023/08/29 02:03:14;;;;;;;3.20;1.95;;;15.30;99.90;;;;;;5059835;28;20248;-47
2023/08/29 02:05:41;;;;;;;3.90;2.17;;;15.40;99.90;;;;;;5067114;28;20033;-46
2023/08/29 02:08:07;;;;;;;2.72;2.03;;;15.30;99.90;;;;;;5066997;28;20477;-45
2023/08/29 02:10:32;;;;;;;2.28;1.90;;;15.30;99.90;;;;;;5072159;28;20070;-47
2023/08/29 02:12:58;;;;;;;3.08;2.08;;;15.30;99.90;;;;;;5073076;28;20029;-45
2023/08/29 02:15:23;;;;;;;3.35;2.20;;;15.30;99.90;;;;;;5073035;28;20076;-46
2023/08/29 02:17:49;;;;;;;3.67;2.50;;;15.30;99.90;;;;;;5072839;28;20466;-46
2023/08/29 02:20:14;;;;;;;3.38;2.50;;;15.30;99.90;;;;;;5072805;28;20094;-45
2023/08/29 02:22:40;;;;;;;2.72;1.92;;;15.30;99.90;;;;;;5072992;28;20024;-47
2023/08/29 02:25:06;;;;;;;2.63;1.95;;;15.30;99.90;;;;;;5071669;28;20429;-47
2023/08/29 02:27:32;;;;;;;2.50;2.15;;;15.20;99.90;;;;;;5072966;28;20445;-48
2023/08/29 02:29:58;;;;;;;4.03;2.42;;;15.20;99.90;;;;;;5072612;28;20032;-47
2023/08/29 02:32:23;;;;;;;3.60;2.70;;;15.20;99.90;;;;;;5073087;28;20025;-46
2023/08/29 02:34:49;;;;;;;4.82;2.47;;;15.20;99.90;;;;;;5073076;28;20524;-48
2023/08/29 02:37:15;;;;;;;6.18;2.60;;;15.20;99.90;;;;;;5072789;28;20567;-47
2023/08/29 02:39:41;;;;;;;5.30;3.00;;;15.10;99.90;;;;;;5072427;28;20024;-50
2023/08/29 02:42:07;;;;;;;4.63;2.50;;;15.10;99.90;;;;;;5071377;28;20155;-46
2023/08/29 02:44:32;;;;;;;4.70;2.83;;;15.10;99.90;;;;;;5072634;28;20448;-45
2023/08/29 02:46:58;;;;;;;3.78;2.35;;;15.00;99.90;;;;;;5072391;28;20024;-45
2023/08/29 02:49:23;;;;;;;4.15;2.50;;;15.10;99.90;;;;;;5071992;28;20013;-49
2023/08/29 02:51:49;;;;;;;5.50;2.95;;;15.00;99.90;;;;;;5071019;28;20052;-46
2023/08/29 02:54:14;;;;;;;4.25;2.75;;;15.00;99.90;;;;;;5072367;28;20028;-49
2023/08/29 02:56:40;;;;;;;2.58;2.38;;;15.00;99.90;;;;;;5072353;28;20266;-46
2023/08/29 02:59:05;;;;;;;3.30;2.65;;;15.00;99.90;;;;;;5071453;28;20444;-46
2023/08/29 03:01:31;;;;;;;5.78;2.67;;;15.00;99.90;;;;;;5072233;28;20017;-47
2023/08/29 03:03:57;;;;;;;3.38;2.50;;;15.00;99.90;;;;;;5070751;28;20039;-45
2023/08/29 03:06:22;;;;;;;3.28;2.60;;;15.00;99.90;;;;;;5072348;28;20017;-46
2023/08/29 03:08:48;;;;;;;3.25;2.30;;;15.00;99.90;;;;;;5069850;28;20673;-46
2023/08/29 03:11:13;;;;;;;3.95;2.40;;;15.00;99.90;;;;;;5063415;28;20055;-47
2023/08/29 03:13:39;;;;;;;6.43;2.50;;;14.90;99.90;;;;;;5060298;28;20484;-48
2023/08/29 03:16:14;;;;;;;3.35;2.72;;;14.90;99.90;;;;;;5064754;28;20108;-48
2023/08/29 03:18:40;;;;;;;7.55;3.05;;;14.90;99.90;;;;;;5070590;28;20029;-46
2023/08/29 03:21:06;;;;;;;5.00;3.05;;;14.90;99.90;;;;;;5071580;28;20025;-47
2023/08/29 03:23:33;;;;;;;3.90;2.88;;;14.90;99.90;;;;;;5071844;28;20024;-48
2023/08/29 03:26:06;;;;;;;5.68;2.90;;;14.90;99.90;;;;;;5071733;28;20009;-49
2023/08/29 03:28:36;;;;;;;3.72;2.70;;;14.80;99.90;;;;;;5071326;28;20020;-46
2023/08/29 03:31:12;;;;;;;4.90;2.95;;;14.80;99.90;;;;;;5071888;28;20016;-47
2023/08/29 03:33:38;;;;;;;4.35;3.00;;;14.80;99.90;;;;;;5071655;28;20031;-47
2023/08/29 03:36:05;;;;;;;5.63;2.90;;;14.80;99.90;;;;;;5071896;28;20025;-49
2023/08/29 03:38:33;;;;;;;6.70;3.15;;;14.70;99.90;;;;;;5071139;28;20112;-47
2023/08/29 03:40:58;;;;;;;5.65;2.88;;;14.70;99.90;;;;;;5071480;28;20025;-49
2023/08/29 03:43:27;;;;;;;3.83;2.85;;;14.60;99.90;;;;;;5071802;28;20377;-46
2023/08/29 03:45:59;;;;;;;6.70;3.25;;;14.60;99.90;;;;;;5067491;28;20028;-46
2023/08/29 03:48:25;;;;;;;4.32;2.95;;;14.60;99.90;;;;;;5060689;28;20221;-47
2023/08/29 03:50:51;;;;;;;4.28;3.15;;;14.60;99.90;;;;;;5063432;28;20383;-48
2023/08/29 03:53:17;;;;;;;3.70;3.05;;;14.60;99.90;;;;;;5062019;28;20064;-48
2023/08/29 03:55:42;;;;;;;5.20;2.88;;;14.60;99.90;;;;;;5061149;28;20020;-49
2023/08/29 03:58:08;;;;;;;3.00;2.70;;;14.50;99.90;;;;;;5061597;28;20096;-50
2023/08/29 04:00:34;;;;;;;2.50;2.28;;;14.50;99.90;;;;;;5070120;28;20382;-48
2023/08/29 04:03:00;;;;;;;7.22;3.10;;;14.50;99.90;;;;;;5070855;28;20151;-47
2023/08/29 04:05:27;;;;;;;4.82;2.50;;;14.50;99.90;;;;;;5071098;28;20017;-48
2023/08/29 04:07:52;;;;;;;4.30;2.85;;;14.40;99.90;;;;;;5070817;28;20059;-49
2023/08/29 04:10:18;;;;;;;4.65;2.50;;;14.40;99.90;;;;;;5070913;28;20051;-46
2023/08/29 04:12:44;;;;;;;4.65;2.78;;;14.40;99.90;;;;;;5071312;28;20025;-47
2023/08/29 04:15:12;;;;;;;3.50;2.67;;;14.30;99.90;;;;;;5070831;28;20251;-46
2023/08/29 04:17:38;;;;;;;5.82;3.15;;;14.30;99.90;;;;;;5070936;28;20016;-47
2023/08/29 04:20:12;;;;;;;3.72;2.65;;;14.30;99.90;;;;;;5070759;28;20036;-50
2023/08/29 04:22:38;;;;;;;3.97;3.03;;;14.20;99.90;;;;;;5071048;28;20016;-47
2023/08/29 04:25:06;;;;;;;3.65;3.17;;;14.20;99.90;;;;;;5070670;28;20027;-48
2023/08/29 04:27:32;;;;;;;4.05;2.60;;;14.20;99.90;;;;;;5070798;28;20531;-47
2023/08/29 04:29:58;;;;;;;4.55;2.80;;;14.10;99.90;;;;;;5070090;28;20036;-45
2023/08/29 04:32:24;;;;;;;3.63;2.75;;;14.10;99.90;;;;;;5070475;28;20048;-47
2023/08/29 04:34:49;;;;;;;5.38;3.17;;;14.10;99.90;;;;;;5070493;28;20021;-46
2023/08/29 04:37:16;;;;;;;3.38;2.78;;;14.10;99.90;;;;;;5070056;28;20119;-46
2023/08/29 04:39:42;;;;;;;3.67;2.60;;;14.10;99.90;;;;;;5069932;28;20420;-47
2023/08/29 04:42:07;;;;;;;8.68;3.45;;;14.00;99.90;;;;;;5070105;28;20042;-47
2023/08/29 04:44:33;;;;;;;3.47;3.17;;;14.10;99.90;;;;;;5070096;28;20390;-49
2023/08/29 04:46:59;;;;;;;4.05;2.95;;;14.00;99.90;;;;;;5070173;28;20402;-46
2023/08/29 04:49:25;;;;;;;3.67;2.88;;;14.00;99.90;;;;;;5069728;28;20032;-46
2023/08/29 04:51:50;;;;;;;4.50;2.70;;;14.00;99.90;;;;;;5068818;28;20013;-46
2023/08/29 04:54:16;;;;;;;3.80;3.22;;;14.00;99.90;;;;;;5070446;28;21602;-48
2023/08/29 04:56:41;;;;;;;4.15;3.30;;;14.10;99.90;;;;;;5070227;28;20340;-47
2023/08/29 04:59:07;;;;;;;4.88;3.85;;;14.00;99.90;;;;;;5067631;28;20024;-47
2023/08/29 05:01:33;;;;;;;4.55;3.35;;;14.00;99.90;;;;;;5070404;28;20020;-46
2023/08/29 05:03:59;;;;;;;4.97;3.53;;;14.00;99.90;;;;;;5072959;28;20435;-49
2023/08/29 05:06:25;;;;;;;3.70;3.00;;;14.10;99.90;;;;;;5070247;28;20142;-48
2023/08/29 05:08:51;;;;;;;4.00;3.25;;;14.10;99.90;;;;;;5062153;28;20017;-47
2023/08/29 05:11:17;;;;;;;7.15;3.85;;;14.10;99.90;;;;;;5068944;28;20041;-47
2023/08/29 05:13:43;;;;;;;7.15;3.95;;;14.20;99.90;;;;;;5069695;28;20534;-47
2023/08/29 05:16:08;;;;;;;8.13;4.45;;;14.20;99.90;;;;;;5069764;28;20154;-47
2023/08/29 05:18:34;;;;;;;5.93;3.45;;;14.30;99.90;;;;;;5067954;28;20029;-50
2023/08/29 05:20:59;;;;;;;4.45;3.40;;;14.30;99.90;;;;;;5069687;28;20028;-51
2023/08/29 05:23:25;;;;;;;6.32;3.10;;;14.30;99.90;;;;;;5068341;28;20097;-46
2023/08/29 05:25:50;;;;;;;4.43;3.40;;;14.40;99.90;;;;;;5069585;28;20028;-47
2023/08/29 05:28:16;;;;;;;3.92;2.92;;;14.40;99.90;;;;;;5069023;28;20040;-47
2023/08/29 05:30:42;;;;;;;5.15;3.50;;;14.50;99.90;;;;;;5068176;28;20028;-47
2023/08/29 05:33:08;;;;;;;4.82;3.53;;;14.50;99.90;;;;;;5069387;28;20044;-46
2023/08/29 05:35:33;;;;;;;6.38;3.83;;;14.60;99.90;;;;;;5069807;28;20056;-47
2023/08/29 05:37:59;;;;;;;5.22;3.65;;;14.60;99.90;;;;;;5067595;28;20402;-47
2023/08/29 05:40:25;;;;;;;4.97;2.90;;;14.60;99.90;;;;;;5069406;28;20311;-47
2023/08/29 05:42:50;;;;;;;5.18;3.58;;;14.70;99.90;;;;;;5069114;28;20458;-48
2023/08/29 05:45:16;;;;;;;5.25;3.05;;;14.70;99.90;;;;;;5069418;28;20055;-47
2023/08/29 05:47:41;;;;;;;3.75;2.80;;;14.80;99.90;;;;;;5068893;28;20492;-47
2023/08/29 05:50:08;;;;;;;4.47;3.40;;;14.80;99.90;;;;;;5067994;28;20555;-47
2023/08/29 05:52:33;;;;;;;6.00;3.47;;;14.90;99.90;;;;;;5059978;28;20025;-47
2023/08/29 05:54:59;;;;;;;4.30;3.20;;;14.90;99.90;;;;;;5069439;28;20093;-46
2023/08/29 05:57:25;;;;;;;4.50;3.50;;;14.90;99.90;;;;;;5069136;28;20059;-47
2023/08/29 05:59:51;;;;;;;6.55;3.08;;;15.00;99.90;;;;;;5068669;28;20032;-49
2023/08/29 06:02:16;;;;;;;4.68;3.40;;;15.00;99.90;;;;;;5068929;28;20029;-49
2023/08/29 06:04:42;;;;;;;5.35;3.58;;;15.00;99.90;;;;;;5069063;28;20332;-46
2023/08/29 06:07:07;;;;;;;5.18;3.13;;;15.10;99.90;;;;;;5068969;28;20389;-47
2023/08/29 06:09:33;;;;;;;4.45;3.42;;;15.10;99.90;;;;;;5068535;28;20379;-47
2023/08/29 06:11:59;;;;;;;7.55;3.53;;;15.10;99.90;;;;;;5067544;28;20212;-47
2023/08/29 06:14:25;;;;;;;10.20;4.00;;;15.10;99.90;;;;;;5068896;28;20024;-48
2023/08/29 06:16:51;;;;;;;4.22;3.80;;;15.10;99.90;;;;;;5068825;28;20024;-47
2023/08/29 06:19:17;;;;;;;3.88;3.03;;;15.10;99.90;;;;;;5068255;28;20033;-45
2023/08/29 06:21:42;;;;;;;5.60;3.58;;;15.10;99.90;;;;;;5068978;28;20017;-46
2023/08/29 06:24:08;;;;;;;6.38;3.90;;;15.10;99.90;;;;;;5068154;28;20100;-47
2023/08/29 06:26:34;;;;;;;6.25;2.92;;;15.10;99.90;;;;;;5067830;28;20091;-46
2023/08/29 06:29:00;;;;;;;3.97;3.55;;;15.10;99.90;;;;;;5068690;28;20100;-47
2023/08/29 06:31:25;;;;;;;3.70;3.30;;;15.20;99.90;;;;;;5068849;28;20441;-46
2023/08/29 06:33:51;;;;;;;5.35;3.58;;;15.20;99.90;;;;;;5068883;28;20031;-46
2023/08/29 06:36:16;;;;;;;4.80;3.05;;;15.30;99.90;;;;;;5069282;28;20068;-46
2023/08/29 06:38:42;;;;;;;6.20;3.72;;;15.30;99.90;;;;;;5067125;28;20039;-48
2023/08/29 06:41:08;;;;;;;4.47;3.33;;;15.30;99.90;;;;;;5068980;28;20040;-46
2023/08/29 06:43:34;;;;;;;4.15;3.10;;;15.30;99.90;;;;;;5068980;28;20020;-50
2023/08/29 06:45:59;;;;;;;7.47;3.30;;;15.40;99.90;;;;;;5068820;28;20070;-45
2023/08/29 06:48:25;;;;;;;3.80;3.25;;;15.40;99.90;;;;;;5068040;28;20025;-48
2023/08/29 06:50:50;;;;;;;5.60;3.90;;;15.40;99.90;;;;;;5068589;28;20029;-47
2023/08/29 06:53:16;;;;;;;3.25;2.95;;;15.40;99.90;;;;;;5068950;28;20375;-45
2023/08/29 06:55:42;;;;;;;5.65;3.25;;;15.40;99.90;;;;;;5072096;28;20021;-48
2023/08/29 06:58:07;;;;;;;8.57;3.58;;;15.40;99.90;;;;;;5071521;28;20017;-49
2023/08/29 07:00:33;;;;;;;8.27;3.55;;;15.40;99.90;;;;;;5072281;28;20054;-46
2023/08/29 07:03:00;;;;;;;5.95;3.60;;;15.40;99.90;;;;;;5072298;28;20149;-46
2023/08/29 07:05:26;;;;;;;5.78;3.17;;;15.50;99.90;;;;;;5072403;28;20059;-46
2023/08/29 07:07:52;;;;;;;7.07;3.58;;;15.50;99.90;;;;;;5072134;28;20344;-47
2023/08/29 07:10:17;;;;;;;5.05;2.60;;;15.50;99.90;;;;;;5072302;28;20035;-48
2023/08/29 07:12:43;;;;;;;3.80;3.42;;;15.50;99.90;;;;;;5072326;28;20032;-47
2023/08/29 07:15:09;;;;;;;3.75;3.35;;;15.50;99.90;;;;;;5071548;28;20027;-46
2023/08/29 07:17:35;;;;;;;4.38;3.25;;;15.50;99.90;;;;;;5071619;28;20020;-49
2023/08/29 07:20:01;;;;;;;3.88;3.00;;;15.60;99.90;;;;;;5060985;28;20052;-48
2023/08/29 07:22:26;;;;;;;5.25;2.95;;;15.60;99.90;;;;;;5064020;28;20494;-46
2023/08/29 07:24:52;;;;;;;3.65;3.35;;;15.60;99.90;;;;;;5070579;28;20152;-46
2023/08/29 07:27:18;;;;;;;5.32;3.70;;;15.70;99.90;;;;;;5072519;28;20532;-50
2023/08/29 07:29:44;;;;;;;6.95;3.88;;;15.80;99.90;;;;;;5070538;28;20428;-49
2023/08/29 07:32:09;;;;;;;4.95;3.25;;;15.80;99.90;;;;;;5071651;28;20028;-47
2023/08/29 07:34:35;;;;;;;3.92;2.92;;;15.90;99.90;;;;;;5065936;28;20032;-46
2023/08/29 07:37:00;;;;;;;4.43;2.90;;;15.90;99.90;;;;;;5071631;28;20271;-46
2023/08/29 07:39:26;;;;;;;6.85;3.40;;;15.90;99.90;;;;;;5071365;28;20277;-47
2023/08/29 07:41:51;;;;;;;3.42;3.10;;;15.90;99.90;;;;;;5068591;28;20037;-47
2023/08/29 07:44:17;;;;;;;7.32;3.58;;;16.00;99.90;;;;;;5061240;28;20017;-46
2023/08/29 07:46:43;;;;;;;6.72;3.85;;;16.00;99.90;;;;;;5060061;28;20470;-49
2023/08/29 07:49:14;;;;;;;6.38;3.58;;;16.00;99.90;;;;;;5059254;28;20056;-47
2023/08/29 07:51:40;;;;;;;4.32;3.22;;;16.10;99.90;;;;;;5058858;28;20014;-47
2023/08/29 07:54:06;;;;;;;3.58;2.90;;;16.10;99.90;;;;;;5064371;28;20017;-46
2023/08/29 07:56:31;;;;;;;10.30;3.25;;;16.20;99.90;;;;;;5063902;28;20008;-46
2023/08/29 07:58:57;;;;;;;5.68;3.10;;;16.20;99.90;;;;;;5060368;28;20521;-47
2023/08/29 08:01:22;;;;;;;4.38;2.80;;;16.30;99.90;;;;;;5062294;28;20078;-49
2023/08/29 08:03:48;;;;;;;5.00;3.85;;;16.30;99.90;;;;;;5060951;28;20070;-48
2023/08/29 08:06:13;;;;;;;4.95;3.05;;;16.30;99.90;;;;;;5065346;28;20419;-47
2023/08/29 08:08:39;;;;;;;4.22;2.90;;;16.40;99.90;;;;;;5070741;28;20416;-47
2023/08/29 08:11:05;;;;;;;7.72;2.97;;;16.50;99.90;;;;;;5064032;28;20020;-46
2023/08/29 08:13:31;;;;;;;6.03;3.05;;;16.60;99.90;;;;;;5070862;28;20024;-47
2023/08/29 08:15:57;;;;;;;6.57;2.97;;;16.60;99.90;;;;;;5071039;28;20107;-47
2023/08/29 08:18:22;;;;;;;3.95;2.70;;;16.70;99.90;;;;;;5070274;28;20159;-46
2023/08/29 08:20:48;;;;;;;5.90;3.13;;;16.80;99.90;;;;;;5071062;28;20031;-47
2023/08/29 08:23:13;;;;;;;4.07;2.83;;;16.80;99.90;;;;;;5069661;28;20021;-48
2023/08/29 08:25:39;;;;;;;7.05;3.13;;;16.90;99.90;;;;;;5064025;28;20025;-49
2023/08/29 08:28:06;;;;;;;4.57;3.03;;;16.90;99.90;;;;;;5058156;28;20525;-47
2023/08/29 08:30:32;;;;;;;6.00;3.17;;;16.90;99.90;;;;;;5059555;28;20067;-46
2023/08/29 08:32:57;;;;;;;6.13;3.50;;;16.90;99.90;;;;;;5059129;28;20056;-48
2023/08/29 08:35:24;;;;;;;5.70;3.20;;;17.00;99.90;;;;;;5057964;28;20440;-50
2023/08/29 08:37:50;;;;;;;3.55;2.67;;;17.00;99.90;;;;;;5056661;28;20029;-48
2023/08/29 08:40:15;;;;;;;5.60;3.50;;;17.00;99.90;;;;;;5063816;28;20037;-49
2023/08/29 08:42:41;;;;;;;4.45;2.83;;;17.10;99.90;;;;;;5067098;28;20313;-47
2023/08/29 08:45:09;;;;;;;5.45;2.80;;;17.10;99.90;;;;;;5066871;28;20028;-47
2023/08/29 08:47:35;;;;;;;6.88;2.80;;;17.10;99.90;;;;;;5069044;28;20013;-49
2023/08/29 08:50:02;;;;;;;3.42;2.78;;;17.20;99.90;;;;;;5069761;28;20096;-48
2023/08/29 08:52:32;;;;;;;5.75;3.28;;;17.20;99.90;;;;;;5068909;28;20268;-46
2023/08/29 08:54:57;;;;;;;3.85;2.78;;;17.30;99.90;;;;;;5070120;28;20029;-47
2023/08/29 08:57:24;;;;;;;3.72;2.38;;;17.40;99.90;;;;;;5069937;28;20039;-50
2023/08/29 08:59:50;;;;;;;6.05;3.03;;;17.50;99.90;;;;;;5069672;28;20094;-47
2023/08/29 09:02:17;;;;;;;5.85;3.08;;;17.60;99.90;;;;;;5070000;28;20539;-46
2023/08/29 09:04:43;;;;;;;6.93;2.80;;;17.70;99.90;;;;;;5067030;28;20487;-49
2023/08/29 09:07:09;;;;;;;3.70;3.00;;;17.70;99.90;;;;;;5056762;28;20027;-49
2023/08/29 09:09:35;;;;;;;5.38;3.03;;;17.80;99.90;;;;;;5066304;28;20028;-48
2023/08/29 09:12:00;;;;;;;3.40;2.40;;;17.90;99.90;;;;;;5060917;28;20073;-50
2023/08/29 09:14:27;;;;;;;3.45;2.63;;;18.10;99.90;;;;;;5064409;28;20494;-47
2023/08/29 09:17:04;;;;;;;5.10;2.90;;;18.20;99.90;;;;;;5065969;28;20032;-46
2023/08/29 09:19:33;;;;;;;5.18;2.67;;;18.30;99.90;;;;;;5069134;28;20239;-48
2023/08/29 09:21:59;;;;;;;5.15;2.22;;;18.30;99.90;;;;;;5069706;28;20366;-47
2023/08/29 09:24:35;;;;;;;4.00;2.80;;;18.30;99.90;;;;;;5069900;28;20024;-47
2023/08/29 09:27:09;;;;;;;4.20;2.50;;;18.30;99.90;;;;;;5069783;28;20513;-50
2023/08/29 09:29:36;;;;;;;3.53;2.75;;;18.30;99.90;;;;;;5069355;28;20066;-48
2023/08/29 09:32:13;;;;;;;3.10;2.58;;;18.30;99.90;;;;;;5069601;28;20039;-47
2023/08/29 09:34:39;;;;;;;3.53;2.42;;;18.40;99.90;;;;;;5068377;28;20024;-46
2023/08/29 09:37:06;;;;;;;2.47;2.20;;;18.40;99.90;;;;;;5069508;28;20020;-50
2023/08/29 09:39:32;;;;;;;3.83;2.55;;;18.50;99.90;;;;;;5069000;28;20020;-47
2023/08/29 09:42:02;;;;;;;5.43;2.55;;;18.50;99.90;;;;;;5069435;28;20020;-51
2023/08/29 09:44:29;;;;;;;8.20;2.80;;;18.60;99.90;;;;;;5069539;28;20094;-46
2023/08/29 09:46:55;;;;;;;5.88;2.55;;;18.60;99.90;;;;;;5069597;28;20386;-46
2023/08/29 09:49:21;;;;;;;6.00;2.28;;;18.60;99.90;;;;;;5069040;28;20117;-50
2023/08/29 09:51:48;;;;;;;3.65;2.25;;;18.70;99.90;;;;;;5067918;28;20603;-48
2023/08/29 09:54:18;;;;;;;3.67;2.35;;;18.70;99.90;;;;;;5069143;28;20029;-50
2023/08/29 09:56:44;;;;;;;6.28;2.45;;;18.80;99.90;;;;;;5069285;28;20017;-47
2023/08/29 09:59:13;;;;;;;4.22;2.53;;;18.60;99.90;;;;;;5067189;28;20425;-49
2023/08/29 10:01:43;;;;;;;3.40;2.50;;;18.60;99.90;;;;;;5069224;28;20431;-49
2023/08/29 10:04:11;;;;;;;4.47;2.55;;;18.60;99.90;;;;;;5069079;28;20491;-49
2023/08/29 10:06:38;;;;;;;6.25;2.00;;;18.60;99.90;;;;;;5069324;28;20573;-48
2023/08/29 10:09:05;;;;;;;3.80;2.60;;;18.50;99.90;;;;;;5068925;28;20016;-46
2023/08/29 10:11:31;;;;;;;4.57;2.13;;;18.50;99.90;;;;;;5069179;28;20418;-47
2023/08/29 10:13:58;;;;;;;2.33;2.13;;;18.50;99.90;;;;;;5069041;28;20571;-47
2023/08/29 10:16:25;;;;;;;2.78;2.10;;;18.40;99.90;;;;;;5068947;28;20106;-49
2023/08/29 10:18:51;;;;;;;4.57;2.15;;;18.40;99.90;;;;;;5068518;28;20086;-50
2023/08/29 10:21:21;;;;;;;5.85;2.25;;;18.40;99.90;;;;;;5068879;28;20052;-47
2023/08/29 10:23:50;;;;;;;4.45;2.17;;;18.40;99.90;;;;;;5067821;28;20227;-50
2023/08/29 10:26:17;;;;;;;3.22;2.30;;;18.40;99.90;;;;;;5068973;28;20020;-49
2023/08/29 10:28:45;;;;;;;3.00;1.98;;;18.30;99.90;;;;;;5070141;28;20039;-49
2023/08/29 10:31:11;;;;;;;5.93;2.45;;;18.30;99.90;;;;;;5073026;28;20517;-46
2023/08/29 10:33:37;;;;;;;3.63;2.00;;;18.20;99.90;;;;;;5072941;28;20055;-46
2023/08/29 10:36:05;;;;;;;2.28;1.98;;;18.10;99.90;;;;;;5072897;28;20114;-47
2023/08/29 10:38:31;;;;;;;2.50;1.80;;;18.20;99.90;;;;;;5072270;28;20552;-47
2023/08/29 10:41:04;;;;;;;3.05;1.80;;;18.10;99.90;;;;;;5072817;28;20032;-48
2023/08/29 10:43:30;;;;;;;4.00;2.13;;;18.10;99.90;;;;;;5072566;28;20452;-49
2023/08/29 10:45:57;;;;;;;3.10;1.80;;;18.10;99.90;;;;;;5072525;28;20047;-48
2023/08/29 10:48:43;;;;;;;2.30;1.60;;;18.00;99.90;;;;;;5072059;28;20040;-46
2023/08/29 10:51:18;;;;;;;2.00;1.80;;;18.00;99.90;;;;;;5071119;28;20013;-48
2023/08/29 10:54:05;;;;;;;3.63;2.10;;;18.10;99.90;;;;;;5072600;28;20025;-48
2023/08/29 10:56:45;;;;;;;3.45;1.95;;;18.20;99.90;;;;;;5072604;28;20037;-46
2023/08/29 10:59:32;;;;;;;1.98;1.73;;;18.20;99.90;;;;;;5071047;28;20074;-48
2023/08/29 11:02:25;;;;;;;2.65;1.55;;;18.20;99.90;;;;;;5072427;28;20059;-48
2023/08/29 11:05:03;;;;;;;3.63;2.15;;;18.30;99.90;;;;;;5072733;28;20025;-47
2023/08/29 11:07:29;;;;;;;5.22;2.47;;;18.30;99.90;;;;;;5072088;28;20090;-47
2023/08/29 11:10:15;;;;;;;4.22;1.83;;;18.30;99.90;;;;;;5071954;28;20071;-46
2023/08/29 11:13:09;;;;;;;5.10;2.05;;;18.40;99.90;;;;;;5072211;28;20024;-49
2023/08/29 11:15:47;;;;;;;2.47;1.85;;;18.50;99.90;;;;;;5072230;28;20078;-48
2023/08/29 11:18:35;;;;;;;5.10;2.10;;;18.50;99.90;;;;;;5071563;28;20501;-45
2023/08/29 11:21:05;;;;;;;2.42;1.75;;;18.50;99.90;;;;;;5071948;28;20095;-49
2023/08/29 11:23:35;;;;;;;2.90;1.80;;;18.60;99.90;;;;;;5071802;28;20024;-49
2023/08/29 11:26:00;;;;;;;2.85;1.70;;;18.60;99.90;;;;;;5071927;28;20020;-49
2023/08/29 11:28:26;;;;;;;4.22;2.08;;;18.70;99.90;;;;;;5071441;28;20029;-48
2023/08/29 11:30:51;;;;;;;2.13;1.92;;;18.70;99.90;;;;;;5072053;28;20066;-49
2023/08/29 11:33:19;;;;;;;5.80;2.17;;;18.80;99.90;;;;;;5071827;28;20036;-49
2023/08/29 11:35:45;;;;;;;1.73;1.50;;;18.90;99.90;;;;;;5071853;28;20232;-48
2023/08/29 11:38:10;;;;;;;3.00;1.75;;;19.00;99.90;;;;;;5071315;28;20379;-48
2023/08/29 11:40:36;;;;;;;6.05;2.67;;;19.10;99.90;;;;;;5070547;28;20055;-48
2023/08/29 11:43:02;;;;;;;3.85;2.42;;;19.20;99.90;;;;;;5071855;28;20561;-47
2023/08/29 11:45:30;;;;;;;2.80;2.05;;;19.30;99.90;;;;;;5067464;28;20031;-49
2023/08/29 11:47:56;;;;;;;4.40;1.95;;;19.50;99.90;;;;;;5066223;28;20082;-46
2023/08/29 11:50:22;;;;;;;3.83;1.80;;;19.50;99.90;;;;;;5066426;28;20025;-50
2023/08/29 11:52:48;;;;;;;3.53;2.30;;;19.70;99.90;;;;;;5060118;28;20350;-47
2023/08/29 11:55:16;;;;;;;6.53;1.90;;;19.70;99.90;;;;;;5062585;28;20032;-47
2023/08/29 11:57:45;;;;;;;2.15;1.60;;;19.80;99.90;;;;;;5070987;28;20366;-47
2023/08/29 12:00:15;;;;;;;3.25;1.58;;;19.90;99.90;;;;;;5066156;28;20032;-46
2023/08/29 12:02:41;;;;;;;4.78;1.70;;;19.90;99.90;;;;;;5071077;28;20485;-48
2023/08/29 12:05:07;;;;;;;3.63;1.85;;;20.00;99.90;;;;;;5063038;28;20063;-47
2023/08/29 12:07:33;;;;;;;3.38;1.70;;;20.00;99.90;;;;;;5071399;28;20445;-47
2023/08/29 12:10:10;;;;;;;1.90;1.40;;;20.20;99.90;;;;;;5070958;28;20028;-46
2023/08/29 12:12:36;;;;;;;4.40;1.88;;;20.30;99.90;;;;;;5070932;28;20394;-47
2023/08/29 12:15:11;;;;;;;5.75;2.38;;;20.60;99.90;;;;;;5065232;28;20506;-46
2023/08/29 12:17:39;;;;;;;3.42;1.70;;;20.80;99.90;;;;;;5064441;28;20086;-46
2023/08/29 12:20:12;;;;;;;2.28;1.48;;;21.10;99.90;;;;;;5060957;28;20016;-48
2023/08/29 12:22:38;;;;;;;3.40;1.60;;;21.40;99.90;;;;;;5064126;28;20048;-46
2023/08/29 12:25:05;;;;;;;2.63;1.20;;;21.60;99.90;;;;;;5062240;28;20024;-49
2023/08/29 12:27:30;;;;;;;2.78;1.30;;;21.90;99.90;;;;;;5063990;28;20093;-46
2023/08/29 12:29:56;;;;;;;3.38;1.40;;;22.30;99.90;;;;;;5061317;28;20149;-48
2023/08/29 12:32:26;;;;;;;2.33;1.63;;;22.60;99.90;;;;;;5060838;28;20024;-47
2023/08/29 12:34:51;;;;;;;4.20;1.60;;;23.10;99.90;;;;;;5064562;28;20013;-47
2023/08/29 12:37:17;;;;;;;1.58;1.15;;;23.50;99.90;;;;;;5064757;28;20038;-47
2023/08/29 12:39:44;;;;;;;4.05;1.60;;;23.70;99.90;;;;;;5058503;28;20028;-49
2023/08/29 12:42:11;;;;;;;1.45;1.17;;;23.80;99.00;;;;;;5064904;28;20028;-50
2023/08/29 12:44:37;;;;;;;1.33;1.15;;;23.90;98.00;;;;;;5070247;28;20509;-48
2023/08/29 12:47:02;;;;;;;1.50;1.00;;;23.60;97.70;;;;;;5070138;28;20004;-47